Time;durP1;ratioP1;P1;durP2;ratioP2;P2;SDS_P1;SDS_P2;PMS_P1;PMS_P2;Temp;Humidity;BMP_temperature;BMP_pressure;BME280_temperature;BME280_humidity;BME280_pressure;Samples;Min_cycle;Max_cycle;Signal;HPM_P1;HPM_P2
2020/08/31 00:00:08;;;;;;;2.3;1.2;;;;;;;10.94;100;95211.77;;;;
2020/08/31 00:01:14;;;;;;;2.3;1.2;;;;;;;10.94;100;95211.77;;;;
2020/08/31 00:02:19;;;;;;;2.3;1.2;;;;;;;10.94;100;95211.77;;;;
2020/08/31 00:03:26;;;;;;;2.3;1.2;;;;;;;10.94;100;95211.77;;;;
2020/08/31 00:04:34;;;;;;;2.3;1.2;;;;;;;10.94;100;95211.77;;;;
2020/08/31 00:05:40;;;;;;;1.15;1.15;;;;;;;10.75;100;95197.22;;;;
2020/08/31 00:06:48;;;;;;;1.15;1.15;;;;;;;10.75;100;95197.22;;;;
2020/08/31 00:07:52;;;;;;;1.15;1.15;;;;;;;10.75;100;95197.22;;;;
2020/08/31 00:08:59;;;;;;;1.15;1.15;;;;;;;10.75;100;95197.22;;;;
2020/08/31 00:10:04;;;;;;;1.15;1.15;;;;;;;10.75;100;95197.22;;;;
2020/08/31 00:11:10;;;;;;;1.15;1.15;;;;;;;10.75;100;95197.22;;;;
2020/08/31 00:12:17;;;;;;;1.15;1.15;;;;;;;10.75;100;95197.22;;;;
2020/08/31 00:13:24;;;;;;;1.15;1.15;;;;;;;10.75;100;95197.22;;;;
2020/08/31 00:14:29;;;;;;;1.15;1.15;;;;;;;10.75;100;95197.22;;;;
2020/08/31 00:15:35;;;;;;;1.15;1.15;;;;;;;10.75;100;95197.22;;;;
2020/08/31 00:16:41;;;;;;;1.1;1.1;;;;;;;10.71;100;95203.74;;;;
2020/08/31 00:17:46;;;;;;;1.1;1.1;;;;;;;10.71;100;95203.74;;;;
2020/08/31 00:18:51;;;;;;;1.1;1.1;;;;;;;10.71;100;95203.74;;;;
2020/08/31 00:19:56;;;;;;;1.1;1.1;;;;;;;10.71;100;95203.74;;;;
2020/08/31 00:21:02;;;;;;;1.1;1.1;;;;;;;10.71;100;95203.74;;;;
2020/08/31 00:22:06;;;;;;;1.1;1.1;;;;;;;10.71;100;95203.74;;;;
2020/08/31 00:23:13;;;;;;;1.1;1.1;;;;;;;10.71;100;95203.74;;;;
2020/08/31 00:24:19;;;;;;;1.1;1.1;;;;;;;10.71;100;95203.74;;;;
2020/08/31 00:25:25;;;;;;;1.1;1.1;;;;;;;10.71;100;95203.74;;;;
2020/08/31 00:26:30;;;;;;;1.1;1.1;;;;;;;10.71;100;95203.74;;;;
2020/08/31 00:27:37;;;;;;;1.2;1.1;;;;;;;10.54;100;95196.48;;;;
2020/08/31 00:28:42;;;;;;;1.2;1.1;;;;;;;10.54;100;95196.48;;;;
2020/08/31 00:29:49;;;;;;;1.2;1.1;;;;;;;10.54;100;95196.48;;;;
2020/08/31 00:30:56;;;;;;;1.2;1.1;;;;;;;10.54;100;95196.48;;;;
2020/08/31 00:32:03;;;;;;;1.2;1.1;;;;;;;10.54;100;95196.48;;;;
2020/08/31 00:33:08;;;;;;;1.2;1.1;;;;;;;10.54;100;95196.48;;;;
2020/08/31 00:34:17;;;;;;;1.2;1.1;;;;;;;10.54;100;95196.48;;;;
2020/08/31 00:35:23;;;;;;;1.2;1.1;;;;;;;10.54;100;95196.48;;;;
2020/08/31 00:36:30;;;;;;;1.2;1.1;;;;;;;10.54;100;95196.48;;;;
2020/08/31 00:37:37;;;;;;;1.25;1.15;;;;;;;10.36;100;95190.84;;;;
2020/08/31 00:38:42;;;;;;;1.25;1.15;;;;;;;10.36;100;95190.84;;;;
2020/08/31 00:39:49;;;;;;;1.25;1.15;;;;;;;10.36;100;95190.84;;;;
2020/08/31 00:40:54;;;;;;;1.25;1.15;;;;;;;10.36;100;95190.84;;;;
2020/08/31 00:41:59;;;;;;;1.25;1.15;;;;;;;10.36;100;95190.84;;;;
2020/08/31 00:43:08;;;;;;;1.25;1.15;;;;;;;10.36;100;95190.84;;;;
2020/08/31 00:44:13;;;;;;;1.25;1.15;;;;;;;10.36;100;95190.84;;;;
2020/08/31 00:45:20;;;;;;;1.25;1.15;;;;;;;10.36;100;95190.84;;;;
2020/08/31 00:46:48;;;;;;;1.25;1.15;;;;;;;10.36;100;95190.84;;;;
2020/08/31 00:47:53;;;;;;;1.25;1.15;;;;;;;10.36;100;95190.84;;;;
2020/08/31 00:49:01;;;;;;;1.25;1.1;;;;;;;10.3;100;95184.52;;;;
2020/08/31 00:50:06;;;;;;;1.25;1.1;;;;;;;10.3;100;95184.52;;;;
2020/08/31 00:51:18;;;;;;;1.25;1.1;;;;;;;10.3;100;95184.52;;;;
2020/08/31 00:52:25;;;;;;;1.25;1.1;;;;;;;10.3;100;95184.52;;;;
2020/08/31 00:53:30;;;;;;;1.25;1.1;;;;;;;10.3;100;95184.52;;;;
2020/08/31 00:54:36;;;;;;;1.25;1.1;;;;;;;10.3;100;95184.52;;;;
2020/08/31 00:55:44;;;;;;;1.25;1.1;;;;;;;10.3;100;95184.52;;;;
2020/08/31 00:56:49;;;;;;;1.25;1.1;;;;;;;10.3;100;95184.52;;;;
2020/08/31 00:57:54;;;;;;;1.25;1.1;;;;;;;10.3;100;95184.52;;;;
2020/08/31 00:59:00;;;;;;;0.95;0.95;;;;;;;10.21;100;95197.66;;;;
2020/08/31 01:00:04;;;;;;;0.95;0.95;;;;;;;10.21;100;95197.66;;;;
2020/08/31 01:01:08;;;;;;;0.95;0.95;;;;;;;10.21;100;95197.66;;;;
2020/08/31 01:02:13;;;;;;;0.95;0.95;;;;;;;10.21;100;95197.66;;;;
2020/08/31 01:03:20;;;;;;;0.95;0.95;;;;;;;10.21;100;95197.66;;;;
2020/08/31 01:04:27;;;;;;;0.95;0.95;;;;;;;10.21;100;95197.66;;;;
2020/08/31 01:05:34;;;;;;;0.95;0.95;;;;;;;10.21;100;95197.66;;;;
2020/08/31 01:06:39;;;;;;;0.95;0.95;;;;;;;10.21;100;95197.66;;;;
2020/08/31 01:07:45;;;;;;;0.95;0.95;;;;;;;10.21;100;95197.66;;;;
2020/08/31 01:08:52;;;;;;;0.95;0.95;;;;;;;10.21;100;95197.66;;;;
2020/08/31 01:10:04;;;;;;;1.55;1.1;;;;;;;10.04;100;95206.94;;;;
2020/08/31 01:11:10;;;;;;;1.55;1.1;;;;;;;10.04;100;95206.94;;;;
2020/08/31 01:12:16;;;;;;;1.55;1.1;;;;;;;10.04;100;95206.94;;;;
2020/08/31 01:13:43;;;;;;;1.55;1.1;;;;;;;10.04;100;95206.94;;;;
2020/08/31 01:15:26;;;;;;;1.55;1.1;;;;;;;10.04;100;95206.94;;;;
2020/08/31 01:16:41;;;;;;;1.55;1.1;;;;;;;10.04;100;95206.94;;;;
2020/08/31 01:17:49;;;;;;;1.55;1.1;;;;;;;10.04;100;95206.94;;;;
2020/08/31 01:18:55;;;;;;;1.55;1.1;;;;;;;10.04;100;95206.94;;;;
2020/08/31 01:20:00;;;;;;;1.55;1.1;;;;;;;10.04;100;95206.94;;;;
2020/08/31 01:21:24;;;;;;;1.4;1.3;;;;;;;9.91;100;95204.6;;;;
2020/08/31 01:22:34;;;;;;;1.4;1.3;;;;;;;9.91;100;95204.6;;;;
2020/08/31 01:23:48;;;;;;;1.4;1.3;;;;;;;9.91;100;95204.6;;;;
2020/08/31 01:24:57;;;;;;;1.4;1.3;;;;;;;9.91;100;95204.6;;;;
2020/08/31 01:26:06;;;;;;;1.4;1.3;;;;;;;9.91;100;95204.6;;;;
2020/08/31 01:27:12;;;;;;;1.4;1.3;;;;;;;9.91;100;95204.6;;;;
2020/08/31 01:28:23;;;;;;;1.4;1.3;;;;;;;9.91;100;95204.6;;;;
2020/08/31 01:29:29;;;;;;;1.4;1.3;;;;;;;9.91;100;95204.6;;;;
2020/08/31 01:30:34;;;;;;;1.4;1.3;;;;;;;9.91;100;95204.6;;;;
2020/08/31 01:31:40;;;;;;;1.35;1.25;;;;;;;9.78;100;95212.8;;;;
2020/08/31 01:32:46;;;;;;;1.35;1.25;;;;;;;9.78;100;95212.8;;;;
2020/08/31 01:33:57;;;;;;;1.35;1.25;;;;;;;9.78;100;95212.8;;;;
2020/08/31 01:35:04;;;;;;;1.35;1.25;;;;;;;9.78;100;95212.8;;;;
2020/08/31 01:36:11;;;;;;;1.35;1.25;;;;;;;9.78;100;95212.8;;;;
2020/08/31 01:37:19;;;;;;;1.35;1.25;;;;;;;9.78;100;95212.8;;;;
2020/08/31 01:38:31;;;;;;;1.35;1.25;;;;;;;9.78;100;95212.8;;;;
2020/08/31 01:39:38;;;;;;;1.35;1.25;;;;;;;9.78;100;95212.8;;;;
2020/08/31 01:40:44;;;;;;;1.35;1.25;;;;;;;9.78;100;95212.8;;;;
2020/08/31 01:41:51;;;;;;;1.3;1.2;;;;;;;9.64;100;95205.57;;;;
2020/08/31 01:43:13;;;;;;;1.3;1.2;;;;;;;9.64;100;95205.57;;;;
2020/08/31 01:44:33;;;;;;;1.3;1.2;;;;;;;9.64;100;95205.57;;;;
2020/08/31 01:45:40;;;;;;;1.3;1.2;;;;;;;9.64;100;95205.57;;;;
2020/08/31 01:46:46;;;;;;;1.3;1.2;;;;;;;9.64;100;95205.57;;;;
2020/08/31 01:47:58;;;;;;;1.3;1.2;;;;;;;9.64;100;95205.57;;;;
2020/08/31 01:49:09;;;;;;;1.3;1.2;;;;;;;9.64;100;95205.57;;;;
2020/08/31 01:50:18;;;;;;;1.3;1.2;;;;;;;9.64;100;95205.57;;;;
2020/08/31 01:51:26;;;;;;;1.3;1.2;;;;;;;9.64;100;95205.57;;;;
2020/08/31 01:52:34;;;;;;;1.2;1.1;;;;;;;9.47;100;95212.15;;;;
2020/08/31 01:53:43;;;;;;;1.2;1.1;;;;;;;9.47;100;95212.15;;;;
2020/08/31 01:54:49;;;;;;;1.2;1.1;;;;;;;9.47;100;95212.15;;;;
2020/08/31 01:55:56;;;;;;;1.2;1.1;;;;;;;9.47;100;95212.15;;;;
2020/08/31 01:57:01;;;;;;;1.2;1.1;;;;;;;9.47;100;95212.15;;;;
2020/08/31 01:58:09;;;;;;;1.2;1.1;;;;;;;9.47;100;95212.15;;;;
2020/08/31 01:59:15;;;;;;;1.2;1.1;;;;;;;9.47;100;95212.15;;;;
2020/08/31 02:00:21;;;;;;;1.2;1.1;;;;;;;9.47;100;95212.15;;;;
2020/08/31 02:01:28;;;;;;;1.2;1.1;;;;;;;9.47;100;95212.15;;;;
2020/08/31 02:02:34;;;;;;;1.2;1.1;;;;;;;9.47;100;95212.15;;;;
2020/08/31 02:03:42;;;;;;;1.6;1.25;;;;;;;9.39;100;95212.47;;;;
2020/08/31 02:04:47;;;;;;;1.6;1.25;;;;;;;9.39;100;95212.47;;;;
2020/08/31 02:05:52;;;;;;;1.6;1.25;;;;;;;9.39;100;95212.47;;;;
2020/08/31 02:06:53;;;;;;;1.6;1.25;;;;;;;9.39;100;95212.47;;;;
2020/08/31 02:07:59;;;;;;;1.6;1.25;;;;;;;9.39;100;95212.47;;;;
2020/08/31 02:09:06;;;;;;;1.6;1.25;;;;;;;9.39;100;95212.47;;;;
2020/08/31 02:10:11;;;;;;;1.6;1.25;;;;;;;9.39;100;95212.47;;;;
2020/08/31 02:11:17;;;;;;;1.6;1.25;;;;;;;9.39;100;95212.47;;;;
2020/08/31 02:12:22;;;;;;;1.6;1.25;;;;;;;9.39;100;95212.47;;;;
2020/08/31 02:13:31;;;;;;;1.6;1.25;;;;;;;9.39;100;95212.47;;;;
2020/08/31 02:14:38;;;;;;;1.8;1.4;;;;;;;9.28;100;95222.27;;;;
2020/08/31 02:15:39;;;;;;;1.8;1.4;;;;;;;9.28;100;95222.27;;;;
2020/08/31 02:16:44;;;;;;;1.8;1.4;;;;;;;9.28;100;95222.27;;;;
2020/08/31 02:17:50;;;;;;;1.8;1.4;;;;;;;9.28;100;95222.27;;;;
2020/08/31 02:18:56;;;;;;;1.8;1.4;;;;;;;9.28;100;95222.27;;;;
2020/08/31 02:20:01;;;;;;;1.8;1.4;;;;;;;9.28;100;95222.27;;;;
2020/08/31 02:21:07;;;;;;;1.8;1.4;;;;;;;9.28;100;95222.27;;;;
2020/08/31 02:22:14;;;;;;;1.8;1.4;;;;;;;9.28;100;95222.27;;;;
2020/08/31 02:23:20;;;;;;;1.8;1.4;;;;;;;9.28;100;95222.27;;;;
2020/08/31 02:24:26;;;;;;;1.7;1.4;;;;;;;9.23;100;95215.94;;;;
2020/08/31 02:25:33;;;;;;;1.7;1.4;;;;;;;9.23;100;95215.94;;;;
2020/08/31 02:26:38;;;;;;;1.7;1.4;;;;;;;9.23;100;95215.94;;;;
2020/08/31 02:27:44;;;;;;;1.7;1.4;;;;;;;9.23;100;95215.94;;;;
2020/08/31 02:28:50;;;;;;;1.7;1.4;;;;;;;9.23;100;95215.94;;;;
2020/08/31 02:29:55;;;;;;;1.7;1.4;;;;;;;9.23;100;95215.94;;;;
2020/08/31 02:31:00;;;;;;;1.7;1.4;;;;;;;9.23;100;95215.94;;;;
2020/08/31 02:32:04;;;;;;;1.7;1.4;;;;;;;9.23;100;95215.94;;;;
2020/08/31 02:33:09;;;;;;;1.7;1.4;;;;;;;9.23;100;95215.94;;;;
2020/08/31 02:34:16;;;;;;;1.7;1.4;;;;;;;9.23;100;95215.94;;;;
2020/08/31 02:35:18;;;;;;;1.7;1.35;;;;;;;9.38;100;95218.09;;;;
2020/08/31 02:36:24;;;;;;;1.7;1.35;;;;;;;9.38;100;95218.09;;;;
2020/08/31 02:37:31;;;;;;;1.7;1.35;;;;;;;9.38;100;95218.09;;;;
2020/08/31 02:38:38;;;;;;;1.7;1.35;;;;;;;9.38;100;95218.09;;;;
2020/08/31 02:39:45;;;;;;;1.7;1.35;;;;;;;9.38;100;95218.09;;;;
2020/08/31 02:40:49;;;;;;;1.7;1.35;;;;;;;9.38;100;95218.09;;;;
2020/08/31 02:41:55;;;;;;;1.7;1.35;;;;;;;9.38;100;95218.09;;;;
2020/08/31 02:43:00;;;;;;;1.7;1.35;;;;;;;9.38;100;95218.09;;;;
2020/08/31 02:44:06;;;;;;;1.7;1.35;;;;;;;9.38;100;95218.09;;;;
2020/08/31 02:45:13;;;;;;;1.7;1.35;;;;;;;9.38;100;95218.09;;;;
2020/08/31 02:46:21;;;;;;;1.45;1.35;;;;;;;9.43;100;95215;;;;
2020/08/31 02:47:29;;;;;;;1.45;1.35;;;;;;;9.43;100;95215;;;;
2020/08/31 02:48:35;;;;;;;1.45;1.35;;;;;;;9.43;100;95215;;;;
2020/08/31 02:49:39;;;;;;;1.45;1.35;;;;;;;9.43;100;95215;;;;
2020/08/31 02:50:44;;;;;;;1.45;1.35;;;;;;;9.43;100;95215;;;;
2020/08/31 02:51:51;;;;;;;1.45;1.35;;;;;;;9.43;100;95215;;;;
2020/08/31 02:52:56;;;;;;;1.45;1.35;;;;;;;9.43;100;95215;;;;
2020/08/31 02:53:58;;;;;;;1.45;1.35;;;;;;;9.43;100;95215;;;;
2020/08/31 02:54:59;;;;;;;1.45;1.35;;;;;;;9.43;100;95215;;;;
2020/08/31 02:56:03;;;;;;;1.45;1.35;;;;;;;9.43;100;95215;;;;
2020/08/31 02:57:07;;;;;;;1.5;1.3;;;;;;;9.35;100;95225.71;;;;
2020/08/31 02:58:15;;;;;;;1.5;1.3;;;;;;;9.35;100;95225.71;;;;
2020/08/31 02:59:22;;;;;;;1.5;1.3;;;;;;;9.35;100;95225.71;;;;
2020/08/31 03:00:28;;;;;;;1.5;1.3;;;;;;;9.35;100;95225.71;;;;
2020/08/31 03:01:35;;;;;;;1.5;1.3;;;;;;;9.35;100;95225.71;;;;
2020/08/31 03:02:44;;;;;;;1.5;1.3;;;;;;;9.35;100;95225.71;;;;
2020/08/31 03:03:50;;;;;;;1.5;1.3;;;;;;;9.35;100;95225.71;;;;
2020/08/31 03:04:57;;;;;;;1.5;1.3;;;;;;;9.35;100;95225.71;;;;
2020/08/31 03:05:57;;;;;;;1.5;1.3;;;;;;;9.35;100;95225.71;;;;
2020/08/31 03:07:02;;;;;;;1.5;1.35;;;;;;;9.39;100;95227.42;;;;
2020/08/31 03:08:12;;;;;;;1.5;1.35;;;;;;;9.39;100;95227.42;;;;
2020/08/31 03:09:18;;;;;;;1.5;1.35;;;;;;;9.39;100;95227.42;;;;
2020/08/31 03:10:24;;;;;;;1.5;1.35;;;;;;;9.39;100;95227.42;;;;
2020/08/31 03:11:32;;;;;;;1.5;1.35;;;;;;;9.39;100;95227.42;;;;
2020/08/31 03:12:43;;;;;;;1.5;1.35;;;;;;;9.39;100;95227.42;;;;
2020/08/31 03:13:50;;;;;;;1.5;1.35;;;;;;;9.39;100;95227.42;;;;
2020/08/31 03:14:54;;;;;;;1.5;1.35;;;;;;;9.39;100;95227.42;;;;
2020/08/31 03:16:00;;;;;;;1.5;1.35;;;;;;;9.39;100;95227.42;;;;
2020/08/31 03:17:39;;;;;;;1.5;1.35;;;;;;;9.39;100;95227.42;;;;
2020/08/31 03:18:44;;;;;;;1.55;1.45;;;;;;;9.61;100;95214.51;;;;
2020/08/31 03:19:50;;;;;;;1.55;1.45;;;;;;;9.61;100;95214.51;;;;
2020/08/31 03:20:54;;;;;;;1.55;1.45;;;;;;;9.61;100;95214.51;;;;
2020/08/31 03:21:58;;;;;;;1.55;1.45;;;;;;;9.61;100;95214.51;;;;
2020/08/31 03:23:04;;;;;;;1.55;1.45;;;;;;;9.61;100;95214.51;;;;
2020/08/31 03:24:12;;;;;;;1.55;1.45;;;;;;;9.61;100;95214.51;;;;
2020/08/31 03:25:16;;;;;;;1.55;1.45;;;;;;;9.61;100;95214.51;;;;
2020/08/31 03:26:22;;;;;;;1.55;1.45;;;;;;;9.61;100;95214.51;;;;
2020/08/31 03:27:28;;;;;;;1.55;1.45;;;;;;;9.61;100;95214.51;;;;
2020/08/31 03:28:36;;;;;;;1.6;1.5;;;;;;;9.8;100;95217.02;;;;
2020/08/31 03:29:40;;;;;;;1.6;1.5;;;;;;;9.8;100;95217.02;;;;
2020/08/31 03:30:44;;;;;;;1.6;1.5;;;;;;;9.8;100;95217.02;;;;
2020/08/31 03:31:51;;;;;;;1.6;1.5;;;;;;;9.8;100;95217.02;;;;
2020/08/31 03:32:57;;;;;;;1.6;1.5;;;;;;;9.8;100;95217.02;;;;
2020/08/31 03:34:01;;;;;;;1.6;1.5;;;;;;;9.8;100;95217.02;;;;
2020/08/31 03:35:06;;;;;;;1.6;1.5;;;;;;;9.8;100;95217.02;;;;
2020/08/31 03:36:13;;;;;;;1.6;1.5;;;;;;;9.8;100;95217.02;;;;
2020/08/31 03:37:18;;;;;;;1.6;1.5;;;;;;;9.8;100;95217.02;;;;
2020/08/31 03:38:25;;;;;;;1.6;1.5;;;;;;;9.8;100;95217.02;;;;
2020/08/31 03:39:31;;;;;;;2.55;1.4;;;;;;;9.92;100;95224.17;;;;
2020/08/31 03:40:36;;;;;;;2.55;1.4;;;;;;;9.92;100;95224.17;;;;
2020/08/31 03:41:44;;;;;;;2.55;1.4;;;;;;;9.92;100;95224.17;;;;
2020/08/31 03:42:48;;;;;;;2.55;1.4;;;;;;;9.92;100;95224.17;;;;
2020/08/31 03:43:55;;;;;;;2.55;1.4;;;;;;;9.92;100;95224.17;;;;
2020/08/31 03:45:01;;;;;;;2.55;1.4;;;;;;;9.92;100;95224.17;;;;
2020/08/31 03:46:09;;;;;;;2.55;1.4;;;;;;;9.92;100;95224.17;;;;
2020/08/31 03:47:21;;;;;;;2.55;1.4;;;;;;;9.92;100;95224.17;;;;
2020/08/31 03:48:32;;;;;;;2.55;1.4;;;;;;;9.92;100;95224.17;;;;
2020/08/31 03:49:45;;;;;;;1.8;1.5;;;;;;;9.95;100;95238.53;;;;
2020/08/31 03:50:49;;;;;;;1.8;1.5;;;;;;;9.95;100;95238.53;;;;
2020/08/31 03:51:56;;;;;;;1.8;1.5;;;;;;;9.95;100;95238.53;;;;
2020/08/31 03:53:21;;;;;;;1.8;1.5;;;;;;;9.95;100;95238.53;;;;
2020/08/31 03:54:40;;;;;;;1.8;1.5;;;;;;;9.95;100;95238.53;;;;
2020/08/31 03:55:56;;;;;;;1.8;1.5;;;;;;;9.95;100;95238.53;;;;
2020/08/31 03:57:11;;;;;;;1.8;1.5;;;;;;;9.95;100;95238.53;;;;
2020/08/31 03:58:28;;;;;;;1.8;1.5;;;;;;;9.95;100;95238.53;;;;
2020/08/31 03:59:39;;;;;;;1.8;1.5;;;;;;;9.95;100;95238.53;;;;
2020/08/31 04:00:46;;;;;;;1.75;1.4;;;;;;;9.94;100;95237.73;;;;
2020/08/31 04:01:58;;;;;;;1.75;1.4;;;;;;;9.94;100;95237.73;;;;
2020/08/31 04:03:19;;;;;;;1.75;1.4;;;;;;;9.94;100;95237.73;;;;
2020/08/31 04:04:34;;;;;;;1.75;1.4;;;;;;;9.94;100;95237.73;;;;
2020/08/31 04:05:43;;;;;;;1.75;1.4;;;;;;;9.94;100;95237.73;;;;
2020/08/31 04:06:50;;;;;;;1.75;1.4;;;;;;;9.94;100;95237.73;;;;
2020/08/31 04:07:55;;;;;;;1.75;1.4;;;;;;;9.94;100;95237.73;;;;
2020/08/31 04:09:02;;;;;;;1.75;1.4;;;;;;;9.94;100;95237.73;;;;
2020/08/31 04:10:15;;;;;;;1.75;1.4;;;;;;;9.94;100;95237.73;;;;
2020/08/31 04:11:27;;;;;;;1.5;1.4;;;;;;;9.83;100;95257.93;;;;
2020/08/31 04:12:37;;;;;;;1.5;1.4;;;;;;;9.83;100;95257.93;;;;
2020/08/31 04:13:42;;;;;;;1.5;1.4;;;;;;;9.83;100;95257.93;;;;
2020/08/31 04:14:48;;;;;;;1.5;1.4;;;;;;;9.83;100;95257.93;;;;
2020/08/31 04:16:06;;;;;;;1.5;1.4;;;;;;;9.83;100;95257.93;;;;
2020/08/31 04:17:20;;;;;;;1.5;1.4;;;;;;;9.83;100;95257.93;;;;
2020/08/31 04:18:27;;;;;;;1.5;1.4;;;;;;;9.83;100;95257.93;;;;
2020/08/31 04:19:36;;;;;;;1.5;1.4;;;;;;;9.83;100;95257.93;;;;
2020/08/31 04:20:42;;;;;;;1.5;1.4;;;;;;;9.83;100;95257.93;;;;
2020/08/31 04:21:54;;;;;;;2;1.5;;;;;;;9.68;100;95270.08;;;;
2020/08/31 04:23:16;;;;;;;2;1.5;;;;;;;9.68;100;95270.08;;;;
2020/08/31 04:24:23;;;;;;;2;1.5;;;;;;;9.68;100;95270.08;;;;
2020/08/31 04:25:37;;;;;;;2;1.5;;;;;;;9.68;100;95270.08;;;;
2020/08/31 04:26:42;;;;;;;2;1.5;;;;;;;9.68;100;95270.08;;;;
2020/08/31 04:27:47;;;;;;;2;1.5;;;;;;;9.68;100;95270.08;;;;
2020/08/31 04:29:06;;;;;;;2;1.5;;;;;;;9.68;100;95270.08;;;;
2020/08/31 04:30:27;;;;;;;2;1.5;;;;;;;9.68;100;95270.08;;;;
2020/08/31 04:31:39;;;;;;;2;1.5;;;;;;;9.68;100;95270.08;;;;
2020/08/31 04:32:47;;;;;;;1.45;1.35;;;;;;;9.55;100;95269.89;;;;
2020/08/31 04:34:00;;;;;;;1.45;1.35;;;;;;;9.55;100;95269.89;;;;
2020/08/31 04:35:14;;;;;;;1.45;1.35;;;;;;;9.55;100;95269.89;;;;
2020/08/31 04:36:22;;;;;;;1.45;1.35;;;;;;;9.55;100;95269.89;;;;
2020/08/31 04:37:40;;;;;;;1.45;1.35;;;;;;;9.55;100;95269.89;;;;
2020/08/31 04:38:53;;;;;;;1.45;1.35;;;;;;;9.55;100;95269.89;;;;
2020/08/31 04:39:59;;;;;;;1.45;1.35;;;;;;;9.55;100;95269.89;;;;
2020/08/31 04:41:19;;;;;;;1.45;1.35;;;;;;;9.55;100;95269.89;;;;
2020/08/31 04:42:33;;;;;;;1.45;1.35;;;;;;;9.55;100;95269.89;;;;
2020/08/31 04:43:43;;;;;;;1.55;1.45;;;;;;;9.55;100;95297.77;;;;
2020/08/31 04:44:52;;;;;;;1.55;1.45;;;;;;;9.55;100;95297.77;;;;
2020/08/31 04:46:05;;;;;;;1.55;1.45;;;;;;;9.55;100;95297.77;;;;
2020/08/31 04:47:17;;;;;;;1.55;1.45;;;;;;;9.55;100;95297.77;;;;
2020/08/31 04:48:25;;;;;;;1.55;1.45;;;;;;;9.55;100;95297.77;;;;
2020/08/31 04:49:35;;;;;;;1.55;1.45;;;;;;;9.55;100;95297.77;;;;
2020/08/31 04:50:44;;;;;;;1.55;1.45;;;;;;;9.55;100;95297.77;;;;
2020/08/31 04:51:56;;;;;;;1.55;1.45;;;;;;;9.55;100;95297.77;;;;
2020/08/31 04:53:12;;;;;;;1.55;1.45;;;;;;;9.55;100;95297.77;;;;
2020/08/31 04:54:23;;;;;;;2.2;1.5;;;;;;;9.75;100;95296.96;;;;
2020/08/31 04:55:33;;;;;;;2.2;1.5;;;;;;;9.75;100;95296.96;;;;
2020/08/31 04:56:44;;;;;;;2.2;1.5;;;;;;;9.75;100;95296.96;;;;
2020/08/31 04:58:03;;;;;;;2.2;1.5;;;;;;;9.75;100;95296.96;;;;
2020/08/31 04:59:21;;;;;;;2.2;1.5;;;;;;;9.75;100;95296.96;;;;
2020/08/31 05:00:31;;;;;;;2.2;1.5;;;;;;;9.75;100;95296.96;;;;
2020/08/31 05:01:39;;;;;;;2.2;1.5;;;;;;;9.75;100;95296.96;;;;
2020/08/31 05:02:45;;;;;;;2.2;1.5;;;;;;;9.75;100;95296.96;;;;
2020/08/31 05:03:51;;;;;;;2.2;1.5;;;;;;;9.75;100;95296.96;;;;
2020/08/31 05:05:00;;;;;;;1.8;1.5;;;;;;;10.09;100;95307.93;;;;
2020/08/31 05:06:19;;;;;;;1.8;1.5;;;;;;;10.09;100;95307.93;;;;
2020/08/31 05:07:30;;;;;;;1.8;1.5;;;;;;;10.09;100;95307.93;;;;
2020/08/31 05:08:40;;;;;;;1.8;1.5;;;;;;;10.09;100;95307.93;;;;
2020/08/31 05:09:46;;;;;;;1.8;1.5;;;;;;;10.09;100;95307.93;;;;
2020/08/31 05:10:52;;;;;;;1.8;1.5;;;;;;;10.09;100;95307.93;;;;
2020/08/31 05:12:07;;;;;;;1.8;1.5;;;;;;;10.09;100;95307.93;;;;
2020/08/31 05:13:25;;;;;;;1.8;1.5;;;;;;;10.09;100;95307.93;;;;
2020/08/31 05:14:44;;;;;;;1.8;1.5;;;;;;;10.09;100;95307.93;;;;
2020/08/31 05:15:52;;;;;;;2.9;1.9;;;;;;;10.35;100;95307;;;;
2020/08/31 05:17:00;;;;;;;2.9;1.9;;;;;;;10.35;100;95307;;;;
2020/08/31 05:18:19;;;;;;;2.9;1.9;;;;;;;10.35;100;95307;;;;
2020/08/31 05:19:32;;;;;;;2.9;1.9;;;;;;;10.35;100;95307;;;;
2020/08/31 05:20:42;;;;;;;2.9;1.9;;;;;;;10.35;100;95307;;;;
2020/08/31 05:21:50;;;;;;;2.9;1.9;;;;;;;10.35;100;95307;;;;
2020/08/31 05:22:55;;;;;;;2.9;1.9;;;;;;;10.35;100;95307;;;;
2020/08/31 05:24:10;;;;;;;2.9;1.9;;;;;;;10.35;100;95307;;;;
2020/08/31 05:25:20;;;;;;;2.9;1.9;;;;;;;10.35;100;95307;;;;
2020/08/31 05:26:28;;;;;;;1.9;1.6;;;;;;;10.71;100;95326.19;;;;
2020/08/31 05:27:37;;;;;;;1.9;1.6;;;;;;;10.71;100;95326.19;;;;
2020/08/31 05:28:45;;;;;;;1.9;1.6;;;;;;;10.71;100;95326.19;;;;
2020/08/31 05:30:00;;;;;;;1.9;1.6;;;;;;;10.71;100;95326.19;;;;
2020/08/31 05:31:15;;;;;;;1.9;1.6;;;;;;;10.71;100;95326.19;;;;
2020/08/31 05:32:33;;;;;;;1.9;1.6;;;;;;;10.71;100;95326.19;;;;
2020/08/31 05:33:45;;;;;;;1.9;1.6;;;;;;;10.71;100;95326.19;;;;
2020/08/31 05:35:01;;;;;;;1.9;1.6;;;;;;;10.71;100;95326.19;;;;
2020/08/31 05:36:12;;;;;;;1.9;1.6;;;;;;;10.71;100;95326.19;;;;
2020/08/31 05:37:33;;;;;;;1.4;1.3;;;;;;;11.08;100;95346.08;;;;
2020/08/31 05:38:43;;;;;;;1.4;1.3;;;;;;;11.08;100;95346.08;;;;
2020/08/31 05:40:07;;;;;;;1.4;1.3;;;;;;;11.08;100;95346.08;;;;
2020/08/31 05:41:29;;;;;;;1.4;1.3;;;;;;;11.08;100;95346.08;;;;
2020/08/31 05:42:59;;;;;;;1.4;1.3;;;;;;;11.08;100;95346.08;;;;
2020/08/31 05:44:06;;;;;;;1.4;1.3;;;;;;;11.08;100;95346.08;;;;
2020/08/31 05:45:46;;;;;;;1.4;1.3;;;;;;;11.08;100;95346.08;;;;
2020/08/31 05:47:09;;;;;;;1.4;1.3;;;;;;;11.08;100;95346.08;;;;
2020/08/31 05:48:22;;;;;;;2.05;1.4;;;;;;;11.49;100;95353.56;;;;
2020/08/31 05:49:33;;;;;;;2.05;1.4;;;;;;;11.49;100;95353.56;;;;
2020/08/31 05:50:40;;;;;;;2.05;1.4;;;;;;;11.49;100;95353.56;;;;
2020/08/31 05:51:48;;;;;;;2.05;1.4;;;;;;;11.49;100;95353.56;;;;
2020/08/31 05:53:04;;;;;;;2.05;1.4;;;;;;;11.49;100;95353.56;;;;
2020/08/31 05:54:35;;;;;;;2.05;1.4;;;;;;;11.49;100;95353.56;;;;
2020/08/31 05:55:45;;;;;;;2.05;1.4;;;;;;;11.49;100;95353.56;;;;
2020/08/31 05:56:52;;;;;;;2.05;1.4;;;;;;;11.49;100;95353.56;;;;
2020/08/31 05:58:16;;;;;;;1.4;1.3;;;;;;;11.83;100;95345.87;;;;
2020/08/31 05:59:41;;;;;;;1.4;1.3;;;;;;;11.83;100;95345.87;;;;
2020/08/31 06:02:03;;;;;;;1.4;1.3;;;;;;;11.83;100;95345.87;;;;
2020/08/31 06:03:24;;;;;;;1.4;1.3;;;;;;;11.83;100;95345.87;;;;
2020/08/31 06:04:53;;;;;;;1.4;1.3;;;;;;;11.83;100;95345.87;;;;
2020/08/31 06:06:05;;;;;;;1.4;1.3;;;;;;;11.83;100;95345.87;;;;
2020/08/31 06:08:36;;;;;;;1.4;1.3;;;;;;;11.83;100;95345.87;;;;
2020/08/31 06:10:05;;;;;;;1.35;1.2;;;;;;;12.13;100;95368.08;;;;
2020/08/31 06:11:21;;;;;;;1.35;1.2;;;;;;;12.13;100;95368.08;;;;
2020/08/31 06:12:34;;;;;;;1.35;1.2;;;;;;;12.13;100;95368.08;;;;
2020/08/31 06:13:45;;;;;;;1.35;1.2;;;;;;;12.13;100;95368.08;;;;
2020/08/31 06:14:55;;;;;;;1.35;1.2;;;;;;;12.13;100;95368.08;;;;
2020/08/31 06:16:04;;;;;;;1.35;1.2;;;;;;;12.13;100;95368.08;;;;
2020/08/31 06:17:10;;;;;;;1.35;1.2;;;;;;;12.13;100;95368.08;;;;
2020/08/31 06:18:28;;;;;;;1.35;1.2;;;;;;;12.13;100;95368.08;;;;
2020/08/31 06:19:36;;;;;;;1.2;1.2;;;;;;;12.41;100;95367.08;;;;
2020/08/31 06:20:44;;;;;;;1.2;1.2;;;;;;;12.41;100;95367.08;;;;
2020/08/31 06:21:50;;;;;;;1.2;1.2;;;;;;;12.41;100;95367.08;;;;
2020/08/31 06:22:57;;;;;;;1.2;1.2;;;;;;;12.41;100;95367.08;;;;
2020/08/31 06:24:02;;;;;;;1.2;1.2;;;;;;;12.41;100;95367.08;;;;
2020/08/31 06:25:09;;;;;;;1.2;1.2;;;;;;;12.41;100;95367.08;;;;
2020/08/31 06:27:19;;;;;;;1.2;1.2;;;;;;;12.41;100;95367.08;;;;
2020/08/31 06:28:25;;;;;;;1.2;1.2;;;;;;;12.41;100;95367.08;;;;
2020/08/31 06:29:31;;;;;;;1.2;1.2;;;;;;;12.41;100;95367.08;;;;
2020/08/31 06:30:39;;;;;;;1.2;1.15;;;;;;;12.74;100;95354.08;;;;
2020/08/31 06:31:50;;;;;;;1.2;1.15;;;;;;;12.74;100;95354.08;;;;
2020/08/31 06:32:59;;;;;;;1.2;1.15;;;;;;;12.74;100;95354.08;;;;
2020/08/31 06:34:10;;;;;;;1.2;1.15;;;;;;;12.74;100;95354.08;;;;
2020/08/31 06:35:15;;;;;;;1.2;1.15;;;;;;;12.74;100;95354.08;;;;
2020/08/31 06:36:26;;;;;;;1.2;1.15;;;;;;;12.74;100;95354.08;;;;
2020/08/31 06:37:34;;;;;;;1.2;1.15;;;;;;;12.74;100;95354.08;;;;
2020/08/31 06:38:40;;;;;;;1.2;1.15;;;;;;;12.74;100;95354.08;;;;
2020/08/31 06:39:49;;;;;;;1.2;1.15;;;;;;;12.74;100;95354.08;;;;
2020/08/31 06:40:55;;;;;;;1.1;1.1;;;;;;;13.04;100;95342.78;;;;
2020/08/31 06:42:07;;;;;;;1.1;1.1;;;;;;;13.04;100;95342.78;;;;
2020/08/31 06:43:14;;;;;;;1.1;1.1;;;;;;;13.04;100;95342.78;;;;
2020/08/31 06:44:20;;;;;;;1.1;1.1;;;;;;;13.04;100;95342.78;;;;
2020/08/31 06:45:27;;;;;;;1.1;1.1;;;;;;;13.04;100;95342.78;;;;
2020/08/31 06:46:37;;;;;;;1.1;1.1;;;;;;;13.04;100;95342.78;;;;
2020/08/31 06:47:47;;;;;;;1.1;1.1;;;;;;;13.04;100;95342.78;;;;
2020/08/31 06:48:52;;;;;;;1.1;1.1;;;;;;;13.04;100;95342.78;;;;
2020/08/31 06:49:58;;;;;;;1.1;1.1;;;;;;;13.04;100;95342.78;;;;
2020/08/31 06:51:03;;;;;;;1.1;1.1;;;;;;;13.04;100;95342.78;;;;
2020/08/31 06:52:16;;;;;;;1.2;1.1;;;;;;;13.34;100;95347.81;;;;
2020/08/31 06:53:27;;;;;;;1.2;1.1;;;;;;;13.34;100;95347.81;;;;
2020/08/31 06:54:35;;;;;;;1.2;1.1;;;;;;;13.34;100;95347.81;;;;
2020/08/31 06:55:41;;;;;;;1.2;1.1;;;;;;;13.34;100;95347.81;;;;
2020/08/31 06:56:46;;;;;;;1.2;1.1;;;;;;;13.34;100;95347.81;;;;
2020/08/31 06:57:59;;;;;;;1.2;1.1;;;;;;;13.34;100;95347.81;;;;
2020/08/31 06:59:08;;;;;;;1.2;1.1;;;;;;;13.34;100;95347.81;;;;
2020/08/31 07:00:15;;;;;;;1.2;1.1;;;;;;;13.34;100;95347.81;;;;
2020/08/31 07:01:47;;;;;;;1.2;1.1;;;;;;;13.34;100;95347.81;;;;
2020/08/31 07:02:54;;;;;;;1;1;;;;;;;13.62;100;95355.77;;;;
2020/08/31 07:04:00;;;;;;;1;1;;;;;;;13.62;100;95355.77;;;;
2020/08/31 07:05:09;;;;;;;1;1;;;;;;;13.62;100;95355.77;;;;
2020/08/31 07:06:21;;;;;;;1;1;;;;;;;13.62;100;95355.77;;;;
2020/08/31 07:07:36;;;;;;;1;1;;;;;;;13.62;100;95355.77;;;;
2020/08/31 07:08:46;;;;;;;1;1;;;;;;;13.62;100;95355.77;;;;
2020/08/31 07:09:56;;;;;;;1;1;;;;;;;13.62;100;95355.77;;;;
2020/08/31 07:11:09;;;;;;;1;1;;;;;;;13.62;100;95355.77;;;;
2020/08/31 07:12:14;;;;;;;1;1;;;;;;;13.62;100;95355.77;;;;
2020/08/31 07:13:21;;;;;;;2.2;1.05;;;;;;;13.88;100;95372.24;;;;
2020/08/31 07:14:27;;;;;;;2.2;1.05;;;;;;;13.88;100;95372.24;;;;
2020/08/31 07:15:37;;;;;;;2.2;1.05;;;;;;;13.88;100;95372.24;;;;
2020/08/31 07:16:43;;;;;;;2.2;1.05;;;;;;;13.88;100;95372.24;;;;
2020/08/31 07:17:57;;;;;;;2.2;1.05;;;;;;;13.88;100;95372.24;;;;
2020/08/31 07:19:08;;;;;;;2.2;1.05;;;;;;;13.88;100;95372.24;;;;
2020/08/31 07:20:18;;;;;;;2.2;1.05;;;;;;;13.88;100;95372.24;;;;